METAR Data
IDs: Format: Raw Decoded Include TAF

Data at: 0031 UTC 23 Mar 2019

KCWC 222355Z AUTO 13008G17KT 10SM SCT065 22/07 A3000 RMK AO2 T02160065 10240 20216
KCWC 222335Z AUTO 13011G16KT 10SM SCT065 22/07 A3001 RMK AO2 T02200070
KCWC 222315Z AUTO 14012G16KT 10SM SCT060 23/08 A3002 RMK AO2 T02310075
KCWC 222255Z AUTO 13009KT 10SM CLR 23/09 A3001 RMK AO2 T02300085
KCWC 222235Z AUTO 14013G19KT 10SM CLR 24/08 A3001 RMK AO2 T02360079
KCWC 222215Z AUTO 15013G18KT 10SM SCT060 24/09 A3003 RMK AO2 T02370093
KCWC 222155Z AUTO 15012G17KT 10SM BKN060 23/09 A3003 RMK AO2 T02300094
KCWC 222135Z AUTO 14011KT 10SM BKN060 23/10 A3003 RMK AO2 T02340096
KCWC 222115Z AUTO 14008KT 10SM OVC060 23/10 A3004 RMK AO2 T02260099
KCWC 222055Z AUTO 13008KT 10SM BKN060 23/10 A3005 RMK AO2 T02250098
KCWC 222035Z AUTO 14008G17KT 10SM CLR 23/10 A3005 RMK AO2 T02300097
KCWC 222015Z AUTO 15015G19KT 10SM CLR 24/10 A3004 RMK AO2 T02390103
KCWC 221955Z AUTO 15014G19KT 10SM CLR 23/10 A3004 RMK AO2 T02320102
KCWC 221935Z AUTO 15014G20KT 10SM SCT050 23/10 A3006 RMK AO2 T02330101
KCWC 221915Z AUTO 15012G18KT 10SM SCT055 23/11 A3008 RMK AO2 T02310105
KCWC 221855Z AUTO 15008KT 10SM CLR 22/10 A3010 RMK AO2 T02240096
KCWC 221835Z AUTO 15009G17KT 10SM CLR 23/09 A3012 RMK AO2 T02260092
KCWC 221815Z AUTO 15008G17KT 10SM CLR 23/09 A3013 RMK AO2 T02250093
KCWC 221755Z AUTO 15010G15KT 10SM CLR 22/09 A3015 RMK AO2 T02170085 10217 20075
KCWC 221735Z AUTO 16009KT 10SM CLR 21/07 A3015 RMK AO2 T02120073
KCWC 221715Z AUTO 15014KT 10SM CLR 21/07 A3015 RMK AO2 T02110068
KCWC 221655Z AUTO 13011G17KT 100V170 10SM CLR 20/05 A3016 RMK AO2 LTG DSNT NW T01990054
KCWC 221635Z AUTO 13010G15KT 10SM CLR 19/06 A3018 RMK AO2 T01900057
KCWC 221615Z AUTO 12013KT 10SM CLR 18/06 A3019 RMK AO2 T01760058
KCWC 221555Z AUTO 13008G14KT 10SM CLR 16/07 A3020 RMK AO2 T01630068
KCWC 221535Z AUTO 13013KT 10SM CLR 16/06 A3020 RMK AO2 LTG DSNT W T01550057
KCWC 221515Z AUTO 13014KT 10SM CLR 15/05 A3020 RMK AO2 T01500053
KCWC 221455Z AUTO 13011KT 10SM CLR 14/05 A3020 RMK AO2 T01370051
KCWC 221435Z AUTO 11007KT 10SM CLR 13/05 A3020 RMK AO2 T01250046
KCWC 221415Z AUTO 10004KT 10SM CLR 12/05 A3020 RMK AO2 T01160045
KCWC 221355Z AUTO 12004KT 10SM CLR 11/04 A3021 RMK AO2 T01070040
KCWC 221335Z AUTO 11005KT 10SM CLR 10/04 A3020 RMK AO2 T00980037
KCWC 221315Z AUTO 11006KT 10SM SCT120 09/03 A3020 RMK AO2 T00880033
KCWC 221255Z AUTO 12005KT 10SM SCT120 08/03 A3020 RMK AO2 T00750028
KCWC 221235Z AUTO 00000KT 10SM CLR 08/03 A3019 RMK AO2 T00790027
KCWC 221215Z AUTO 11005KT 10SM CLR 08/03 A3018 RMK AO2 T00830030
KCWC 221155Z AUTO 09005KT 10SM CLR 08/03 A3016 RMK AO2 T00800031 10115 20076
KCWC 221135Z AUTO 08004KT 10SM CLR 08/03 A3016 RMK AO2 T00780031
KCWC 221115Z AUTO 09003KT 10SM CLR 08/03 A3016 RMK AO2 T00800031
KCWC 221055Z AUTO 10004KT 10SM CLR 09/03 A3016 RMK AO2 T00870032
KCWC 221035Z AUTO 09004KT 10SM CLR 08/03 A3016 RMK AO2 T00840033
KCWC 221015Z AUTO 08004KT 10SM CLR 09/03 A3016 RMK AO2 T00860034
KCWC 220955Z AUTO 09003KT 10SM SCT120 09/04 A3015 RMK AO2 T00900035
KCWC 220935Z AUTO 08003KT 10SM SCT120 09/04 A3015 RMK AO2 T00910035
KCWC 220915Z AUTO 09004KT 10SM CLR 09/04 A3015 RMK AO2 T00890036
KCWC 220855Z AUTO 09003KT 10SM CLR 09/04 A3016 RMK AO2 T00880037
KCWC 220835Z AUTO 07003KT 10SM CLR 10/04 A3017 RMK AO2 T00970035
KCWC 220815Z AUTO 10003KT 10SM CLR 11/03 A3017 RMK AO2 T01050032
KCWC 220755Z AUTO 11005KT 10SM CLR 11/03 A3017 RMK AO2 T01060033
KCWC 220735Z AUTO 09003KT 10SM CLR 11/03 A3018 RMK AO2 T01100031
KCWC 220715Z AUTO 11008KT 10SM CLR 11/03 A3018 RMK AO2 T01080034
KCWC 220655Z AUTO 05003KT 10SM CLR 11/04 A3017 RMK AO2 T01060035
KCWC 220635Z AUTO 08004KT 10SM CLR 11/04 A3017 RMK AO2 T01090035
KCWC 220615Z AUTO 08003KT 10SM CLR 12/04 A3018 RMK AO2 T01150035
KCWC 220555Z AUTO 07003KT 10SM CLR 11/03 A3018 RMK AO2 T01130033 10209 20113 402230065
KCWC 220535Z AUTO 06004KT 10SM CLR 12/03 A3018 RMK AO2 T01200032
KCWC 220515Z AUTO 05004KT 10SM CLR 13/03 A3019 RMK AO2 T01260027
KCWC 220455Z AUTO 04005KT 10SM CLR 12/03 A3019 RMK AO2 T01220028
KCWC 220435Z AUTO 05005KT 10SM CLR 13/03 A3019 RMK AO2 T01330029
KCWC 220415Z AUTO 09003KT 10SM CLR 14/03 A3019 RMK AO2 T01420026
KCWC 220355Z AUTO 10005KT 10SM CLR 15/02 A3019 RMK AO2 T01470021
KCWC 220335Z AUTO 00000KT 10SM CLR 15/02 A3018 RMK AO2 T01500021
KCWC 220315Z AUTO 00000KT 10SM CLR 15/03 A3018 RMK AO2 T01510025
KCWC 220255Z AUTO 12003KT 10SM CLR 16/02 A3017 RMK AO2 T01590024
KCWC 220235Z AUTO 00000KT 10SM CLR 17/02 A3018 RMK AO2 T01650024
KCWC 220215Z AUTO 00000KT 10SM CLR 17/02 A3017 RMK AO2 T01700023
KCWC 220155Z AUTO 00000KT 10SM CLR 17/03 A3016 RMK AO2 T01710029
KCWC 220135Z AUTO 15004KT 10SM CLR 18/01 A3015 RMK AO2 T01840012
KCWC 220115Z AUTO 00000KT 10SM CLR 19/01 A3015 RMK AO2 T01900010
KCWC 220055Z AUTO 00000KT 10SM CLR 19/02 A3015 RMK AO2 T01850016
KCWC 220035Z AUTO 06004KT 10SM CLR 19/01 A3015 RMK AO2 T01920010
KCWC 220015Z AUTO 00000KT 10SM CLR 20/01 A3015 RMK AO2 T02000006
KCWC 212355Z AUTO 04003KT 10SM CLR 21/M01 A3015 RMK AO2 T02081007 10223 20184
KCWC 212335Z AUTO 01004KT 10SM CLR 22/M03 A3015 RMK AO2 T02181029
KCWC 212315Z AUTO 00000KT 10SM CLR 22/M01 A3016 RMK AO2 T02181008
KCWC 212255Z AUTO 02004KT 10SM CLR 22/M01 A3016 RMK AO2 T02211009
KCWC 212235Z AUTO 23003KT 10SM CLR 22/M02 A3016 RMK AO2 T02151016
KCWC 212215Z AUTO 07003KT 10SM CLR 22/M01 A3017 RMK AO2 T02151010
KCWC 212155Z AUTO 16003KT 10SM CLR 22/M01 A3017 RMK AO2 T02161012
KCWC 212135Z AUTO 17003KT 10SM CLR 22/M02 A3018 RMK AO2 T02171017
KCWC 212115Z AUTO 33003KT 10SM CLR 22/M02 A3019 RMK AO2 T02181018
KCWC 212055Z AUTO 35005KT 10SM CLR 22/M01 A3019 RMK AO2 T02171014
KCWC 212035Z AUTO 34004KT 10SM CLR 21/M01 A3020 RMK AO2 T02131015
KCWC 212015Z AUTO 02005KT 10SM CLR 22/00 A3020 RMK AO2 T02211004
KCWC 211955Z AUTO 31006KT 10SM CLR 22/01 A3021 RMK AO2 T02160006
KCWC 211935Z AUTO 34004KT 10SM CLR 21/01 A3022 RMK AO2 T02120012
KCWC 211915Z AUTO 34003KT 10SM CLR 21/01 A3023 RMK AO2 T02070008
KCWC 211855Z AUTO 33003KT 10SM CLR 20/01 A3024 RMK AO2 T02010012
KCWC 211835Z AUTO 36003KT 10SM CLR 19/01 A3025 RMK AO2 T01940010
KCWC 211815Z AUTO 00000KT 10SM CLR 19/02 A3025 RMK AO2 T01920018
KCWC 211755Z AUTO 00000KT 10SM CLR 18/02 A3026 RMK AO2 T01830015 10183 20065
KCWC 211735Z AUTO 00000KT 10SM CLR 18/01 A3026 RMK AO2 T01750008
KCWC 211715Z AUTO 00000KT 10SM CLR 17/01 A3027 RMK AO2 T01690010
KCWC 211655Z AUTO 36004KT 10SM CLR 16/00 A3027 RMK AO2 T01600004
KCWC 211635Z AUTO 00000KT 10SM CLR 15/02 A3027 RMK AO2 T01510020
KCWC 211615Z AUTO 01008KT 10SM CLR 15/02 A3027 RMK AO2 T01460019
KCWC 211555Z AUTO 29009KT 10SM CLR 14/02 A3027 RMK AO2 T01400023
KCWC 211535Z AUTO 28007KT 260V360 10SM CLR 13/04 A3027 RMK AO2 T01320035
KCWC 211515Z AUTO 29008KT 280V340 10SM CLR 12/03 A3027 RMK AO2 T01220033
KCWC 211455Z AUTO 30008KT 300V010 10SM CLR 12/03 A3027 RMK AO2 T01150025
KCWC 211435Z AUTO 29006KT 10SM CLR 11/03 A3026 RMK AO2 T01090028
KCWC 211415Z AUTO 29005KT 10SM CLR 10/03 A3026 RMK AO2 T01020028
KCWC 211355Z AUTO 29005KT 10SM CLR 09/03 A3025 RMK AO2 T00940030
KCWC 211335Z AUTO 28006KT 10SM CLR 08/03 A3024 RMK AO2 T00810025
KCWC 211315Z AUTO 29005KT 10SM CLR 07/03 A3024 RMK AO2 T00690025
KCWC 211255Z AUTO 34005KT 10SM CLR 07/02 A3024 RMK AO2 T00650023
KCWC 211235Z AUTO 35005KT 10SM CLR 07/03 A3024 RMK AO2 T00650025